Terminal Aerodrome Forecast
Issued by NWS

Home | Current Version | Previous Version | Text Only | Print | Product List | Glossary On
Versions: 1 2 3 4 5 6 7 8 9 10 11 12 13 14
000
FTUS42 KTBW 260520
TAFRSW
TAF
KRSW 260520Z 2606/2706 07006KT P6SM SKC
     FM261400 08010KT P6SM FEW040
     FM261800 08010G15KT P6SM SCT050
     FM270100 08009KT P6SM FEW050=

USA.gov is the U.S. government's official web portal to all federal, state and local government web resources and services.